Time;durP1;ratioP1;P1;durP2;ratioP2;P2;SDS_P1;SDS_P2;PMS_P1;PMS_P2;Temp;Humidity;BMP_temperature;BMP_pressure;BME280_temperature;BME280_humidity;BME280_pressure;Samples;Min_cycle;Max_cycle;Signal;HPM_P1;HPM_P2
2021/05/24 00:01:16;;;;;;;7.75;2.47;;;14.70;79.80;;;;;;5017676;28;20030;-71
2021/05/24 00:03:42;;;;;;;5.97;1.45;;;14.70;81.20;;;;;;5017795;28;20018;-71
2021/05/24 00:06:07;;;;;;;7.82;1.17;;;14.70;81.90;;;;;;5017640;28;20030;-71
2021/05/24 00:08:33;;;;;;;8.80;1.40;;;14.50;81.90;;;;;;5017882;28;20314;-71
2021/05/24 00:10:59;;;;;;;3.50;1.10;;;14.40;81.70;;;;;;5017847;28;20083;-71
2021/05/24 00:13:25;;;;;;;5.10;1.13;;;14.20;81.90;;;;;;5017873;28;20026;-71
2021/05/24 00:15:53;;;;;;;4.25;1.00;;;14.10;83.00;;;;;;5017308;28;20081;-71
2021/05/24 00:18:19;;;;;;;2.15;1.00;;;14.00;83.20;;;;;;5017620;28;20060;-71
2021/05/24 00:20:52;;;;;;;4.78;1.02;;;14.00;83.70;;;;;;5017666;28;20407;-71
2021/05/24 00:23:18;;;;;;;4.05;1.23;;;14.00;83.90;;;;;;5017683;28;20097;-71
2021/05/24 00:25:44;;;;;;;3.88;1.00;;;14.00;84.20;;;;;;5017554;28;20304;-71
2021/05/24 00:28:12;;;;;;;6.55;1.60;;;13.90;84.30;;;;;;5017269;28;20160;-71
2021/05/24 00:30:39;;;;;;;6.75;1.50;;;13.90;84.50;;;;;;5017567;28;20029;-71
2021/05/24 00:33:07;;;;;;;5.15;1.30;;;13.80;84.70;;;;;;5017234;28;20433;-71
2021/05/24 00:35:33;;;;;;;2.72;0.90;;;13.80;84.00;;;;;;5017107;28;20469;-71
2021/05/24 00:38:00;;;;;;;3.72;1.15;;;13.80;84.50;;;;;;5017376;28;20387;-71
2021/05/24 00:40:26;;;;;;;5.32;1.27;;;13.70;84.00;;;;;;5017381;28;20291;-71
2021/05/24 00:42:52;;;;;;;8.13;1.42;;;13.70;84.00;;;;;;5017447;28;20101;-71
2021/05/24 00:45:17;;;;;;;9.43;1.88;;;13.70;84.80;;;;;;5017194;28;20398;-71
2021/05/24 00:47:43;;;;;;;5.43;1.45;;;13.70;84.60;;;;;;5017348;28;20097;-71
2021/05/24 00:50:10;;;;;;;7.20;1.65;;;13.60;85.50;;;;;;5017281;28;20299;-71
2021/05/24 00:52:36;;;;;;;3.75;1.33;;;13.60;85.80;;;;;;5017303;28;20403;-71
2021/05/24 00:55:05;;;;;;;8.60;1.77;;;13.50;86.10;;;;;;5016869;28;20110;-71
2021/05/24 00:57:31;;;;;;;9.25;1.80;;;13.50;86.40;;;;;;5016951;28;20433;-71
2021/05/24 00:59:57;;;;;;;5.97;1.90;;;13.50;85.90;;;;;;5017121;28;20033;-71
2021/05/24 01:02:23;;;;;;;3.90;1.38;;;13.60;85.70;;;;;;5017196;28;20041;-71
2021/05/24 01:04:48;;;;;;;4.70;1.30;;;13.60;86.20;;;;;;5017110;28;20291;-71
2021/05/24 01:07:14;;;;;;;2.50;1.45;;;13.60;87.00;;;;;;5016819;28;20045;-71
2021/05/24 01:09:40;;;;;;;4.53;1.50;;;13.60;87.10;;;;;;5016790;28;20121;-71
2021/05/24 01:12:07;;;;;;;5.53;1.42;;;13.50;87.90;;;;;;5020643;28;20029;-71
2021/05/24 01:14:33;;;;;;;4.65;1.63;;;13.30;88.20;;;;;;5020921;28;20330;-71
2021/05/24 01:16:58;;;;;;;6.35;1.63;;;13.20;88.00;;;;;;5020650;28;20057;-71
2021/05/24 01:19:24;;;;;;;4.47;1.50;;;13.10;87.90;;;;;;5020932;28;20036;-71
2021/05/24 01:21:51;;;;;;;3.90;1.30;;;13.00;89.10;;;;;;5020711;28;20318;-71
2021/05/24 01:24:18;;;;;;;6.10;1.50;;;13.00;89.90;;;;;;5020627;28;20422;-71
2021/05/24 01:26:45;;;;;;;9.52;1.60;;;12.90;90.40;;;;;;5020605;28;20411;-71
2021/05/24 01:29:10;;;;;;;7.40;1.73;;;12.90;90.20;;;;;;5020559;28;20417;-71
2021/05/24 01:31:37;;;;;;;5.72;1.65;;;12.70;90.30;;;;;;5020507;28;20040;-71
2021/05/24 01:34:03;;;;;;;6.68;1.63;;;12.60;91.00;;;;;;5020804;28;20108;-71
2021/05/24 01:36:29;;;;;;;3.70;1.40;;;12.60;90.70;;;;;;5020429;28;20415;-71
2021/05/24 01:38:55;;;;;;;7.90;1.30;;;12.60;89.70;;;;;;5020605;28;20099;-71
2021/05/24 01:41:21;;;;;;;3.60;1.30;;;12.60;90.00;;;;;;5020613;28;20030;-71
2021/05/24 01:43:47;;;;;;;6.03;1.10;;;12.50;89.50;;;;;;5020517;28;20057;-71
2021/05/24 01:46:14;;;;;;;7.88;1.33;;;12.50;90.20;;;;;;5020625;28;20030;-71
2021/05/24 01:48:41;;;;;;;5.47;1.40;;;12.50;90.50;;;;;;5020530;28;20399;-71
2021/05/24 01:51:08;;;;;;;5.32;1.38;;;12.50;90.20;;;;;;5020426;28;20029;-71
2021/05/24 01:53:36;;;;;;;4.10;1.25;;;12.50;90.00;;;;;;5020478;28;20050;-71
2021/05/24 01:56:02;;;;;;;3.42;1.50;;;12.50;90.20;;;;;;5020326;28;20049;-71
2021/05/24 01:58:30;;;;;;;5.28;1.60;;;12.50;89.70;;;;;;5020265;28;20038;-71
2021/05/24 02:01:05;;;;;;;5.35;1.27;;;12.60;89.20;;;;;;5020321;28;20300;-71
2021/05/24 02:03:31;;;;;;;4.37;1.40;;;12.60;88.90;;;;;;5020285;28;20228;-71
2021/05/24 02:05:59;;;;;;;4.47;1.60;;;12.60;88.80;;;;;;5019844;28;20264;-71
2021/05/24 02:08:24;;;;;;;5.22;1.30;;;12.70;88.70;;;;;;5020139;28;20026;-71
2021/05/24 02:10:51;;;;;;;6.60;1.45;;;12.70;88.80;;;;;;5019791;28;20041;-71
2021/05/24 02:13:16;;;;;;;5.10;1.50;;;12.70;88.60;;;;;;5020139;28;20030;-71
2021/05/24 02:15:42;;;;;;;8.60;1.52;;;12.70;88.30;;;;;;5019647;28;20353;-71
2021/05/24 02:18:09;;;;;;;7.45;1.42;;;12.80;88.10;;;;;;5019854;28;20101;-71
2021/05/24 02:20:35;;;;;;;5.57;1.50;;;12.80;88.80;;;;;;5019603;28;20030;-71
2021/05/24 02:23:04;;;;;;;4.35;1.50;;;12.80;88.50;;;;;;5019823;28;20030;-71
2021/05/24 02:25:29;;;;;;;7.10;1.50;;;12.90;88.90;;;;;;5019498;28;20322;-71
2021/05/24 02:27:56;;;;;;;5.25;1.40;;;12.80;88.90;;;;;;5019515;28;20010;-71
2021/05/24 02:30:23;;;;;;;7.10;1.20;;;12.70;89.50;;;;;;5019443;28;20030;-71
2021/05/24 02:32:49;;;;;;;6.32;1.83;;;12.60;90.00;;;;;;5019403;28;20105;-71
2021/05/24 02:35:18;;;;;;;2.92;1.27;;;12.60;90.20;;;;;;5019253;28;20076;-71
2021/05/24 02:37:46;;;;;;;3.60;1.30;;;12.60;90.50;;;;;;5019490;28;20026;-70
2021/05/24 02:40:14;;;;;;;5.20;1.90;;;12.60;91.10;;;;;;5019278;28;20152;-71
2021/05/24 02:42:40;;;;;;;2.90;1.40;;;12.60;90.90;;;;;;5019267;28;20022;-71
2021/05/24 02:45:08;;;;;;;6.97;1.50;;;12.60;91.10;;;;;;5019321;28;20032;-71
2021/05/24 02:47:35;;;;;;;5.80;1.73;;;12.50;91.00;;;;;;5019123;28;20440;-71
2021/05/24 02:50:02;;;;;;;5.10;1.20;;;12.60;91.10;;;;;;5019350;28;20076;-71
2021/05/24 02:52:28;;;;;;;6.32;1.23;;;12.60;90.30;;;;;;5019350;28;20026;-71
2021/05/24 02:54:54;;;;;;;3.50;1.33;;;12.60;90.40;;;;;;5018950;28;20441;-71
2021/05/24 02:57:19;;;;;;;7.50;1.10;;;12.60;90.50;;;;;;5018958;28;20088;-71
2021/05/24 02:59:45;;;;;;;4.55;1.20;;;12.70;90.30;;;;;;5019151;28;20030;-71
2021/05/24 03:02:15;;;;;;;4.85;1.25;;;12.70;91.00;;;;;;5019133;28;20026;-71
2021/05/24 03:04:41;;;;;;;3.65;0.93;;;12.80;90.20;;;;;;5019076;28;20018;-71
2021/05/24 03:07:07;;;;;;;6.20;1.40;;;12.80;90.10;;;;;;5018750;28;20053;-71
2021/05/24 03:09:33;;;;;;;5.78;1.30;;;12.80;89.80;;;;;;5018994;28;20069;-71
2021/05/24 03:11:59;;;;;;;4.97;1.50;;;12.90;89.70;;;;;;5018648;28;20026;-71
2021/05/24 03:14:25;;;;;;;3.88;1.40;;;12.90;89.40;;;;;;5018591;28;20080;-71
2021/05/24 03:16:51;;;;;;;3.58;1.25;;;13.00;89.00;;;;;;5018329;28;20085;-71
2021/05/24 03:19:17;;;;;;;5.32;1.30;;;13.00;89.20;;;;;;5018791;28;20033;-71
2021/05/24 03:21:44;;;;;;;10.02;1.38;;;13.00;89.00;;;;;;5018433;28;20472;-71
2021/05/24 03:24:11;;;;;;;6.63;1.58;;;13.00;89.70;;;;;;5018359;28;20026;-71
2021/05/24 03:26:37;;;;;;;3.67;1.15;;;13.00;89.30;;;;;;5017368;28;20026;-71
2021/05/24 03:29:04;;;;;;;4.07;1.27;;;13.00;89.90;;;;;;5018335;28;20022;-71
2021/05/24 03:31:30;;;;;;;4.10;1.10;;;13.10;89.20;;;;;;5018557;28;20030;-71
2021/05/24 03:33:56;;;;;;;7.93;1.13;;;13.20;88.20;;;;;;5018068;28;20036;-71
2021/05/24 03:36:22;;;;;;;3.78;1.08;;;13.20;89.50;;;;;;5018195;28;20033;-71
2021/05/24 03:38:48;;;;;;;4.18;1.33;;;13.10;88.40;;;;;;5018096;28;20025;-71
2021/05/24 03:41:14;;;;;;;4.00;1.38;;;13.20;89.10;;;;;;5018415;28;20076;-71
2021/05/24 03:43:43;;;;;;;5.07;1.50;;;13.30;89.00;;;;;;5018442;28;20018;-71
2021/05/24 03:46:09;;;;;;;3.70;1.10;;;13.30;89.00;;;;;;5017916;28;20022;-71
2021/05/24 03:48:37;;;;;;;3.08;1.00;;;13.30;87.00;;;;;;5018314;28;20326;-71
2021/05/24 03:51:06;;;;;;;3.65;1.25;;;13.30;87.80;;;;;;5018226;28;20303;-71
2021/05/24 03:53:32;;;;;;;5.35;1.27;;;13.30;89.00;;;;;;5018226;28;20370;-71
2021/05/24 03:55:57;;;;;;;4.28;1.10;;;13.30;88.50;;;;;;5018099;28;20029;-71
2021/05/24 03:58:23;;;;;;;4.28;1.20;;;13.30;88.30;;;;;;5017737;28;20052;-71
2021/05/24 04:00:49;;;;;;;2.88;1.35;;;13.40;88.10;;;;;;5018042;28;20026;-71
2021/05/24 04:03:15;;;;;;;5.05;1.27;;;13.50;88.60;;;;;;5018077;28;20041;-71
2021/05/24 04:05:42;;;;;;;3.75;1.00;;;13.50;88.80;;;;;;5017880;28;20076;-71
2021/05/24 04:08:09;;;;;;;4.32;1.30;;;13.50;87.70;;;;;;5017646;28;20418;-71
2021/05/24 04:10:38;;;;;;;5.75;1.35;;;13.50;88.20;;;;;;5017927;28;20105;-71
2021/05/24 04:13:05;;;;;;;10.93;1.33;;;13.60;87.60;;;;;;5017956;28;20034;-71
2021/05/24 04:15:31;;;;;;;8.70;1.73;;;13.70;86.60;;;;;;5017149;28;20123;-71
2021/05/24 04:17:59;;;;;;;3.10;1.08;;;13.70;86.30;;;;;;5017417;28;20040;-71
2021/05/24 04:20:25;;;;;;;8.95;1.67;;;13.70;86.20;;;;;;5017429;28;20418;-71
2021/05/24 04:22:51;;;;;;;4.53;1.00;;;13.80;86.00;;;;;;5017746;28;20029;-71
2021/05/24 04:25:17;;;;;;;8.90;1.20;;;13.80;85.90;;;;;;5017303;28;20032;-71
2021/05/24 04:27:43;;;;;;;4.60;1.40;;;13.90;85.60;;;;;;5017621;28;20049;-71
2021/05/24 04:30:11;;;;;;;5.28;1.50;;;13.90;85.40;;;;;;5017265;28;20455;-71
2021/05/24 04:32:37;;;;;;;4.15;1.15;;;13.90;85.20;;;;;;5017282;28;20084;-71
2021/05/24 04:35:05;;;;;;;4.75;1.20;;;13.90;85.20;;;;;;5017459;28;20034;-71
2021/05/24 04:37:30;;;;;;;6.05;1.23;;;13.90;85.00;;;;;;5017110;28;20041;-71
2021/05/24 04:39:56;;;;;;;3.80;1.08;;;13.90;85.20;;;;;;5017107;28;20060;-71
2021/05/24 04:42:22;;;;;;;3.17;1.15;;;14.00;86.30;;;;;;5017176;28;20076;-71
2021/05/24 04:44:48;;;;;;;3.63;0.98;;;14.00;86.70;;;;;;5016275;28;20044;-71
2021/05/24 04:47:14;;;;;;;6.35;1.30;;;14.00;86.60;;;;;;5017175;28;20037;-71
2021/05/24 04:49:40;;;;;;;2.20;0.80;;;14.00;86.30;;;;;;5017373;28;20404;-71
2021/05/24 04:52:06;;;;;;;11.05;1.00;;;14.00;84.70;;;;;;5017326;28;20115;-71
2021/05/24 04:54:32;;;;;;;5.75;1.20;;;14.00;84.60;;;;;;5017218;28;20040;-71
2021/05/24 04:56:57;;;;;;;3.75;1.40;;;14.00;83.90;;;;;;5017224;28;20104;-71
2021/05/24 04:59:23;;;;;;;6.47;1.20;;;14.00;83.80;;;;;;5016814;28;20026;-71
2021/05/24 05:01:49;;;;;;;4.40;1.23;;;14.10;84.50;;;;;;5017134;28;20042;-71
2021/05/24 05:04:16;;;;;;;2.60;1.20;;;14.10;84.80;;;;;;5016859;28;20022;-71
2021/05/24 05:06:43;;;;;;;2.00;0.82;;;14.20;85.50;;;;;;5016816;28;20029;-71
2021/05/24 05:09:08;;;;;;;6.38;1.10;;;14.20;84.30;;;;;;5016825;28;20037;-71
2021/05/24 05:11:35;;;;;;;4.20;1.10;;;14.20;84.00;;;;;;5017061;28;20033;-71
2021/05/24 05:14:00;;;;;;;4.60;0.90;;;14.30;84.70;;;;;;5016626;28;20037;-71
2021/05/24 05:16:26;;;;;;;2.72;1.48;;;14.10;87.10;;;;;;5016698;28;20074;-71
2021/05/24 05:18:52;;;;;;;4.28;1.08;;;14.00;87.10;;;;;;5016680;28;20434;-71
2021/05/24 05:21:17;;;;;;;3.70;1.35;;;13.90;88.70;;;;;;5016691;28;20018;-71
2021/05/24 05:23:43;;;;;;;4.82;1.20;;;13.80;91.10;;;;;;5017057;28;20022;-71
2021/05/24 05:26:09;;;;;;;5.55;1.23;;;13.70;92.30;;;;;;5016862;28;20029;-71
2021/05/24 05:28:35;;;;;;;5.38;1.45;;;13.80;93.00;;;;;;5016684;28;20437;-71
2021/05/24 05:31:00;;;;;;;4.75;2.50;;;13.80;92.60;;;;;;5016943;28;20022;-71
2021/05/24 05:33:26;;;;;;;6.32;1.98;;;13.80;92.30;;;;;;5016670;28;20429;-71
2021/05/24 05:35:55;;;;;;;4.05;1.45;;;13.80;90.20;;;;;;5016854;28;20049;-71
2021/05/24 05:38:21;;;;;;;4.88;1.27;;;13.80;89.40;;;;;;5016467;28;20041;-71
2021/05/24 05:40:49;;;;;;;4.90;1.20;;;13.90;86.90;;;;;;5016830;28;20026;-71
2021/05/24 05:43:15;;;;;;;1.55;1.08;;;13.80;87.30;;;;;;5016566;28;20441;-71
2021/05/24 05:45:41;;;;;;;3.88;1.42;;;13.80;91.20;;;;;;5016772;28;20033;-71
2021/05/24 05:48:08;;;;;;;2.97;1.20;;;13.60;91.20;;;;;;5016772;28;20034;-71
2021/05/24 05:50:33;;;;;;;7.03;1.50;;;13.60;91.40;;;;;;5016716;28;20042;-71
2021/05/24 05:52:59;;;;;;;5.57;1.63;;;13.50;93.00;;;;;;5016773;28;20049;-71
2021/05/24 05:55:25;;;;;;;4.45;1.17;;;13.30;94.10;;;;;;5016668;28;20025;-71
2021/05/24 05:57:51;;;;;;;5.18;1.83;;;13.20;93.80;;;;;;5019171;28;20050;-71
2021/05/24 06:00:17;;;;;;;3.67;1.45;;;13.30;94.90;;;;;;5020054;28;20120;-71
2021/05/24 06:02:43;;;;;;;2.42;1.23;;;13.30;95.10;;;;;;5020314;28;20033;-71
2021/05/24 06:05:11;;;;;;;4.50;1.52;;;13.30;94.10;;;;;;5020171;28;20030;-71
2021/05/24 06:07:37;;;;;;;3.05;1.08;;;13.20;93.50;;;;;;5035219;28;20034;-71
2021/05/24 06:10:03;;;;;;;6.05;1.30;;;13.10;91.90;;;;;;5020107;28;20022;-71
2021/05/24 06:12:29;;;;;;;5.28;1.40;;;13.00;92.30;;;;;;5020064;28;20024;-71
2021/05/24 06:14:57;;;;;;;3.03;1.00;;;12.90;92.70;;;;;;5020030;28;20481;-71
2021/05/24 06:17:23;;;;;;;5.25;1.60;;;12.80;91.00;;;;;;5019704;28;20050;-71
2021/05/24 06:19:48;;;;;;;6.85;1.27;;;12.70;90.60;;;;;;5019580;28;20030;-71
2021/05/24 06:22:14;;;;;;;6.40;1.33;;;12.70;90.70;;;;;;5019693;28;20030;-71
2021/05/24 06:24:40;;;;;;;3.83;1.00;;;12.60;91.30;;;;;;5034975;28;20037;-71
2021/05/24 06:27:06;;;;;;;2.47;1.10;;;12.70;91.40;;;;;;5019537;28;20052;-71
2021/05/24 06:29:32;;;;;;;6.63;1.58;;;12.70;91.30;;;;;;5019766;28;20025;-71
2021/05/24 06:31:59;;;;;;;4.28;1.40;;;12.80;90.30;;;;;;5019754;28;20148;-71
2021/05/24 06:34:25;;;;;;;5.57;1.20;;;12.90;91.10;;;;;;5019400;28;20418;-71
2021/05/24 06:36:51;;;;;;;7.50;1.35;;;13.10;90.60;;;;;;5019653;28;20030;-71
2021/05/24 06:39:21;;;;;;;6.10;1.40;;;13.20;90.10;;;;;;5019199;28;20477;-71
2021/05/24 06:41:47;;;;;;;5.55;1.52;;;13.30;90.20;;;;;;5019527;28;20160;-71
2021/05/24 06:44:13;;;;;;;5.35;1.40;;;13.30;89.90;;;;;;5019109;28;20028;-71
2021/05/24 06:46:40;;;;;;;5.03;1.30;;;13.30;89.90;;;;;;5019460;28;20116;-71
2021/05/24 06:49:05;;;;;;;4.13;1.30;;;13.40;89.70;;;;;;5019404;28;20432;-71
2021/05/24 06:51:32;;;;;;;4.82;1.38;;;13.40;89.00;;;;;;5019385;28;20034;-71
2021/05/24 06:53:58;;;;;;;4.10;1.40;;;13.40;91.10;;;;;;5019308;28;20048;-71
2021/05/24 06:56:23;;;;;;;5.32;1.33;;;13.50;92.80;;;;;;5018994;28;20415;-71
2021/05/24 06:58:49;;;;;;;5.03;1.60;;;13.50;92.20;;;;;;5018832;28;20030;-71
2021/05/24 07:01:15;;;;;;;4.25;1.48;;;13.50;93.00;;;;;;5018906;28;20022;-71
2021/05/24 07:03:41;;;;;;;5.43;1.40;;;13.40;92.00;;;;;;5018903;28;20033;-71
2021/05/24 07:06:07;;;;;;;5.57;1.75;;;13.20;93.60;;;;;;5019003;28;20088;-71
2021/05/24 07:08:32;;;;;;;4.63;1.42;;;13.00;95.80;;;;;;5017842;28;20057;-71
2021/05/24 07:10:58;;;;;;;5.32;1.27;;;12.80;96.60;;;;;;5018988;28;20105;-71
2021/05/24 07:13:25;;;;;;;10.82;1.80;;;12.60;97.80;;;;;;5018686;28;20029;-71
2021/05/24 07:15:51;;;;;;;4.78;1.70;;;12.40;98.00;;;;;;5018438;28;20457;-71
2021/05/24 07:18:19;;;;;;;5.10;1.80;;;12.30;98.00;;;;;;5018794;28;20430;-71
2021/05/24 07:20:45;;;;;;;3.30;1.70;;;12.30;98.00;;;;;;5018818;28;20026;-71
2021/05/24 07:23:11;;;;;;;6.55;1.73;;;12.20;98.00;;;;;;5018840;28;20075;-71
2021/05/24 07:25:36;;;;;;;5.38;1.70;;;12.30;98.00;;;;;;5018676;28;20026;-71
2021/05/24 07:28:02;;;;;;;5.38;1.50;;;12.40;98.00;;;;;;5018700;28;20036;-71
2021/05/24 07:30:28;;;;;;;5.57;1.55;;;12.40;98.00;;;;;;5018335;28;20014;-71
2021/05/24 07:32:54;;;;;;;4.95;1.10;;;12.50;96.90;;;;;;5018633;28;20022;-71
2021/05/24 07:35:19;;;;;;;6.20;1.17;;;12.50;97.00;;;;;;5018225;28;20493;-71
2021/05/24 07:37:45;;;;;;;4.45;1.80;;;12.50;97.90;;;;;;5018476;28;20026;-71
2021/05/24 07:43:33;;;;;;;4.90;1.52;;;12.50;98.00;;;;;;5018182;28;20085;-71
2021/05/24 07:45:59;;;;;;;6.05;2.35;;;12.40;98.00;;;;;;5018008;28;20030;-71
2021/05/24 07:48:24;;;;;;;6.10;2.08;;;12.20;98.00;;;;;;5018043;28;20100;-71
2021/05/24 07:50:50;;;;;;;4.68;2.95;;;12.20;98.00;;;;;;5017966;28;20025;-71
2021/05/24 07:53:16;;;;;;;8.55;1.80;;;12.10;98.00;;;;;;5017991;28;20038;-71
2021/05/24 07:55:41;;;;;;;5.45;1.50;;;12.10;98.00;;;;;;5018155;28;20026;-71
2021/05/24 07:58:07;;;;;;;10.25;1.92;;;12.00;98.00;;;;;;5017777;28;20049;-71
2021/05/24 08:00:33;;;;;;;5.35;1.70;;;12.10;98.00;;;;;;5018058;28;20033;-71
2021/05/24 08:02:59;;;;;;;3.20;1.90;;;12.20;98.00;;;;;;5018074;28;20406;-71
2021/05/24 08:05:25;;;;;;;8.05;1.70;;;12.20;98.00;;;;;;5017684;28;20026;-71
2021/05/24 08:07:51;;;;;;;3.42;1.48;;;12.20;98.00;;;;;;5017978;28;20030;-71
2021/05/24 08:10:17;;;;;;;4.38;1.60;;;12.40;98.00;;;;;;5017947;28;20073;-71
2021/05/24 08:12:44;;;;;;;3.83;1.63;;;12.50;98.00;;;;;;5017966;28;20049;-71
2021/05/24 08:15:15;;;;;;;4.35;1.35;;;12.60;98.00;;;;;;5017685;28;20033;-72
2021/05/24 08:17:41;;;;;;;2.22;1.10;;;12.70;98.00;;;;;;5017504;28;20064;-71
2021/05/24 08:20:08;;;;;;;3.35;1.20;;;12.90;98.00;;;;;;5017510;28;20121;-71
2021/05/24 08:22:35;;;;;;;4.25;1.75;;;13.10;98.00;;;;;;5017494;28;20033;-71
2021/05/24 08:25:00;;;;;;;4.03;1.27;;;13.30;98.00;;;;;;5017356;28;20026;-71
2021/05/24 08:27:26;;;;;;;2.92;1.27;;;13.40;98.00;;;;;;5017685;28;20160;-71
2021/05/24 08:29:52;;;;;;;2.30;1.10;;;13.40;98.00;;;;;;5017644;28;20030;-71
2021/05/24 08:32:18;;;;;;;2.72;1.02;;;13.40;98.00;;;;;;5017299;28;20438;-71
2021/05/24 08:34:44;;;;;;;3.10;1.42;;;13.40;96.90;;;;;;5017226;28;20029;-71
2021/05/24 08:37:09;;;;;;;383.45;12.05;;;13.40;97.40;;;;;;5017204;28;20041;-71
2021/05/24 08:39:35;;;;;;;7.82;2.10;;;13.30;96.80;;;;;;5017420;28;20050;-71
2021/05/24 08:42:01;;;;;;;8.15;2.17;;;13.10;97.10;;;;;;5017114;28;20053;-71
2021/05/24 08:44:27;;;;;;;5.28;1.67;;;12.80;96.90;;;;;;5017396;28;20030;-71
2021/05/24 08:46:53;;;;;;;4.97;1.60;;;12.60;97.30;;;;;;5017396;28;20109;-71
2021/05/24 08:49:19;;;;;;;4.35;2.13;;;12.50;98.00;;;;;;5017326;28;20034;-71
2021/05/24 08:51:45;;;;;;;1.90;1.38;;;12.50;98.00;;;;;;5017026;28;20026;-71
2021/05/24 08:54:10;;;;;;;4.55;1.60;;;12.50;97.70;;;;;;5016970;28;20030;-71
2021/05/24 08:56:37;;;;;;;5.65;1.38;;;12.50;97.80;;;;;;5017253;28;20105;-71
2021/05/24 08:59:03;;;;;;;2.40;1.45;;;12.60;98.00;;;;;;5016856;28;20109;-71
2021/05/24 09:01:29;;;;;;;4.60;1.60;;;12.60;98.00;;;;;;5016885;28;20045;-71
2021/05/24 09:04:05;;;;;;;3.20;1.60;;;12.70;98.00;;;;;;5017152;28;20049;-71
2021/05/24 09:06:49;;;;;;;2.42;1.40;;;12.70;98.00;;;;;;5016843;28;20014;-71
2021/05/24 09:09:17;;;;;;;3.35;1.38;;;12.80;98.00;;;;;;5016859;28;20026;-71
2021/05/24 09:11:45;;;;;;;2.40;1.30;;;12.80;98.00;;;;;;5017084;28;20034;-71
2021/05/24 09:14:16;;;;;;;2.55;1.27;;;12.90;98.00;;;;;;5016734;28;20087;-71
2021/05/24 09:16:43;;;;;;;3.53;1.50;;;12.80;98.00;;;;;;5016580;28;20053;-71
2021/05/24 09:19:20;;;;;;;3.50;1.63;;;12.60;98.00;;;;;;5016683;28;20037;-71
2021/05/24 09:22:00;;;;;;;2.13;1.30;;;12.50;98.00;;;;;;5017013;28;20314;-71
2021/05/24 09:24:30;;;;;;;3.20;1.30;;;12.50;98.00;;;;;;5016681;28;20033;-71
2021/05/24 09:26:58;;;;;;;3.50;1.30;;;12.50;98.00;;;;;;5017010;28;20410;-71
2021/05/24 09:29:40;;;;;;;2.28;1.42;;;12.40;98.00;;;;;;5016937;28;20026;-71
2021/05/24 09:32:20;;;;;;;4.45;1.20;;;12.40;98.00;;;;;;5018498;28;20033;-71
2021/05/24 09:34:48;;;;;;;3.67;1.95;;;12.40;98.00;;;;;;5020808;28;20041;-71
2021/05/24 09:37:15;;;;;;;3.60;1.20;;;12.40;98.00;;;;;;5020459;28;20022;-71
2021/05/24 09:39:41;;;;;;;5.35;1.20;;;12.30;98.00;;;;;;5020603;28;20346;-71
2021/05/24 09:42:16;;;;;;;3.97;1.20;;;12.30;98.00;;;;;;5020605;28;20160;-71
2021/05/24 09:44:55;;;;;;;2.60;1.05;;;12.50;98.00;;;;;;5020610;28;20026;-71
2021/05/24 09:47:35;;;;;;;3.80;1.00;;;12.60;98.00;;;;;;5020296;28;20042;-71
2021/05/24 09:50:19;;;;;;;2.13;1.15;;;12.60;98.00;;;;;;5020533;28;20026;-71
2021/05/24 09:52:46;;;;;;;6.50;1.13;;;12.60;98.00;;;;;;5020536;28;20030;-71
2021/05/24 09:55:16;;;;;;;2.13;1.02;;;12.60;98.00;;;;;;5020091;28;20035;-71
2021/05/24 09:57:57;;;;;;;5.50;1.00;;;12.50;98.00;;;;;;5020420;28;20037;-71
2021/05/24 10:00:38;;;;;;;3.70;1.48;;;12.50;98.00;;;;;;5020257;28;20054;-71
2021/05/24 10:03:06;;;;;;;1.83;1.20;;;12.60;98.00;;;;;;5020192;28;20095;-71
2021/05/24 10:05:59;;;;;;;1.90;0.90;;;12.60;98.00;;;;;;5019929;28;20045;-71
2021/05/24 10:08:26;;;;;;;7.13;1.02;;;12.80;98.00;;;;;;5018820;28;20125;-71
2021/05/24 10:10:52;;;;;;;1.92;1.35;;;12.80;96.30;;;;;;5019847;28;20030;-71
2021/05/24 10:13:18;;;;;;;2.63;0.70;;;12.60;95.40;;;;;;5019854;28;20079;-71
2021/05/24 10:15:44;;;;;;;1.63;0.73;;;12.50;96.00;;;;;;5021282;28;20048;-71
2021/05/24 10:18:12;;;;;;;3.95;0.95;;;12.50;96.60;;;;;;5030874;28;20115;-71
2021/05/24 10:20:38;;;;;;;4.25;0.80;;;12.40;98.00;;;;;;5020019;28;20109;-71
2021/05/24 10:23:04;;;;;;;3.63;1.27;;;12.40;98.00;;;;;;5019975;28;20079;-71
2021/05/24 10:25:32;;;;;;;149.82;6.43;;;12.40;98.00;;;;;;5019842;28;20072;-71
2021/05/24 10:28:00;;;;;;;194.88;8.10;;;12.40;98.00;;;;;;5019819;28;20030;-71
2021/05/24 10:30:26;;;;;;;658.83;26.85;;;12.30;98.00;;;;;;5019478;28;20029;-71
2021/05/24 10:33:00;;;;;;;604.40;20.73;;;12.30;98.00;;;;;;5019445;28;20029;-71
2021/05/24 10:35:35;;;;;;;423.63;15.40;;;12.20;98.00;;;;;;5019338;28;20057;-70
2021/05/24 10:38:23;;;;;;;322.33;10.75;;;12.00;98.00;;;;;;5019641;28;20038;-71
2021/05/24 10:40:50;;;;;;;306.48;13.57;;;12.00;98.00;;;;;;5019282;28;20541;-70
2021/05/24 10:43:18;;;;;;;492.40;18.33;;;12.00;98.00;;;;;;5017954;28;20446;-70
2021/05/24 10:45:44;;;;;;;259.20;8.80;;;12.20;98.00;;;;;;5019575;28;20318;-70
2021/05/24 10:48:17;;;;;;;179.98;6.28;;;12.40;98.00;;;;;;5019454;28;20383;-70
2021/05/24 10:51:06;;;;;;;235.57;8.25;;;12.60;98.00;;;;;;5019073;28;20026;-70
2021/05/24 10:53:42;;;;;;;8.30;0.85;;;12.80;98.00;;;;;;5019393;28;20044;-70
2021/05/24 10:56:17;;;;;;;1.88;0.85;;;12.90;98.00;;;;;;5019301;28;20037;-70
2021/05/24 10:58:43;;;;;;;3.20;1.10;;;13.00;98.00;;;;;;5018998;28;20029;-70
2021/05/24 11:01:08;;;;;;;10.48;1.13;;;13.00;98.00;;;;;;5019214;28;20248;-70
2021/05/24 11:03:35;;;;;;;2.28;1.20;;;13.00;98.00;;;;;;5019247;28;20108;-71
2021/05/24 11:06:07;;;;;;;5.40;1.10;;;12.90;98.00;;;;;;5019045;28;20021;-71
2021/05/24 11:08:34;;;;;;;4.22;1.70;;;12.90;98.00;;;;;;5019088;28;20034;-71
2021/05/24 11:11:23;;;;;;;971.58;38.65;;;12.80;98.00;;;;;;5018984;28;20030;-71
2021/05/24 11:13:59;;;;;;;455.65;19.00;;;12.80;98.00;;;;;;5018694;28;20030;-71
2021/05/24 11:16:26;;;;;;;187.43;8.70;;;12.70;98.00;;;;;;5018703;28;20406;-71
2021/05/24 11:19:06;;;;;;;1.48;0.75;;;12.70;98.00;;;;;;5018830;28;20113;-71
2021/05/24 11:21:32;;;;;;;4.07;0.63;;;12.60;98.00;;;;;;5018551;28;20034;-71
2021/05/24 11:26:30;;;;;;;1.85;1.02;;;12.60;98.00;;;;;;5018507;28;20050;-71
2021/05/24 11:29:14;;;;;;;1.00;0.70;;;12.70;98.00;;;;;;5018719;28;20037;-71
2021/05/24 11:31:40;;;;;;;0.90;0.70;;;12.70;98.00;;;;;;5018383;28;20034;-71
2021/05/24 11:34:12;;;;;;;1.30;0.70;;;12.70;98.00;;;;;;5018587;28;20038;-71
2021/05/24 11:36:38;;;;;;;3.85;0.88;;;12.60;98.00;;;;;;5018520;28;20299;-71
2021/05/24 11:39:09;;;;;;;2.85;0.68;;;12.50;98.00;;;;;;5018453;28;20045;-70
2021/05/24 11:41:42;;;;;;;3.85;0.68;;;12.40;98.00;;;;;;5018144;28;20058;-71
2021/05/24 11:44:08;;;;;;;4.88;0.70;;;12.20;97.50;;;;;;5018063;28;20029;-71
2021/05/24 11:46:51;;;;;;;5.47;0.70;;;12.20;98.00;;;;;;5018410;28;20022;-71
2021/05/24 11:49:18;;;;;;;6.20;0.68;;;12.10;98.00;;;;;;5018644;28;20388;-71
2021/05/24 11:51:46;;;;;;;2.33;0.68;;;12.20;98.00;;;;;;5018259;28;20104;-71
2021/05/24 11:54:15;;;;;;;3.50;0.77;;;12.20;98.00;;;;;;5017465;28;20057;-71
2021/05/24 11:56:45;;;;;;;5.53;0.80;;;12.20;98.00;;;;;;5018189;28;20037;-71
2021/05/24 11:59:13;;;;;;;6.38;1.00;;;12.30;98.00;;;;;;5017769;28;20034;-71
2021/05/24 12:01:42;;;;;;;2.55;0.80;;;12.30;98.00;;;;;;5018125;28;20022;-71
2021/05/24 12:04:15;;;;;;;520.80;21.92;;;12.40;98.00;;;;;;5017700;28;20422;-71
2021/05/24 12:06:51;;;;;;;468.30;18.77;;;12.50;98.00;;;;;;5017773;28;20105;-71
2021/05/24 12:09:35;;;;;;;249.23;8.10;;;12.40;98.00;;;;;;5018085;28;20342;-71
2021/05/24 12:12:04;;;;;;;573.53;26.63;;;12.30;98.00;;;;;;5017928;28;20038;-71
2021/05/24 12:14:32;;;;;;;580.97;26.10;;;12.20;98.00;;;;;;5017570;28;20040;-71
2021/05/24 12:16:58;;;;;;;299.30;11.05;;;12.20;98.00;;;;;;5017240;28;20068;-71
2021/05/24 12:19:25;;;;;;;126.55;5.70;;;12.20;98.00;;;;;;5017716;28;20038;-71
2021/05/24 12:21:52;;;;;;;219.38;7.32;;;12.30;98.00;;;;;;5017726;28;20433;-71
2021/05/24 12:24:19;;;;;;;213.93;7.65;;;12.40;98.00;;;;;;5017390;28;20036;-71
2021/05/24 12:26:53;;;;;;;3.35;1.02;;;12.60;98.00;;;;;;5017568;28;20153;-71
2021/05/24 12:29:30;;;;;;;4.18;1.10;;;12.60;98.00;;;;;;5017371;28;20034;-71
2021/05/24 12:32:03;;;;;;;175.20;7.65;;;12.60;98.00;;;;;;5017327;28;20026;-71
2021/05/24 12:34:34;;;;;;;822.67;36.67;;;12.80;98.00;;;;;;5017269;28;20029;-71
2021/05/24 12:37:03;;;;;;;58.88;2.88;;;12.80;98.00;;;;;;5017212;28;20033;-71
2021/05/24 12:39:32;;;;;;;1457.88;55.80;;;12.80;98.00;;;;;;5017419;28;20026;-71
2021/05/24 12:42:00;;;;;;;1940.03;73.90;;;12.60;98.00;;;;;;5017095;28;20029;-71
2021/05/24 12:44:28;;;;;;;1006.45;36.20;;;12.40;98.00;;;;;;5017071;28;20319;-71
2021/05/24 12:46:57;;;;;;;1275.57;55.50;;;12.10;98.00;;;;;;5017377;28;20406;-71
2021/05/24 12:49:39;;;;;;;931.58;35.50;;;12.10;98.00;;;;;;5017030;28;20030;-71
2021/05/24 12:52:06;;;;;;;418.98;15.35;;;12.00;98.00;;;;;;5017002;28;20026;-71